EmailTwitter


Observations de surface / Québec / CYUL (71627)

Régions: Québec | Canada | États-Unis | Europe | France | UK | Ailleurs
Station
Affichage
Infos & localisation pour CYUL (71627) | Aide pour décoder les METARs

Observations prises le 2018-11-16 à 12H00 UTC à MONTREAL INTL A, QB (CYUL)

Etat du ciel: couvert.

Obstacle(s) à la visibilité: faible neige.

Température: -4.0 Celsius

Point de rosée: -5.0 Celsius

Humidité relative: 93%

Facteur vent: -9.

Vents: Nord-est à 15 km/h ou 8 noeuds.

Pression au niveau moyen de la mer: 101.08 kilopascals.

Calage altimétrique: 101.05 kilopascals ou 29.84 pouces de mercure.

Visibilité horizontale: 2.50 milles terrestres ou 4.00 kilomètres.

Hauteur du plafond: 427 mètres ( 1400 pieds ).

Observation METAR:

CYUL 161200Z 04008KT 2 1/2SM -SN SCT008 OVC014 M04/M05 A2984 RMK SF3SC5 /S06/

SLP108=